Main page
METAR-TAF:

METAR-TAF

Airports :

Bolzano, Italy

latitude: 46-28N, longitude: 011-20E, elevation: 262 m

Current weather observation

The report was made 48 minutes ago, at 04:50 UTC
Wind 2 kt from variable directions
Temperature 15°C
Humidity 94%
Pressure 1015 hPa
Visibility 10 km or more
Few clouds at a height of 1500 ft

METAR: LIPB 150450Z VRB02KT 9999 FEW015 15/14 Q1015 RMK MON E CLD SCT

Time: 07:38 (05:38 UTC)

Forecast

The report was made 1 hour and 3 minutes ago, at 04:35 UTC
Forecast valid from 15 at 05 UTC to 15 at 24 UTC
Wind 5 kt from variable directions
Visibility 10 km or more
Few clouds at a height of 3000 ft
Temporary
from 15 at 10 UTC to 15 at 15 UTC
Visibility: 4000 m
thunderstorm, rain

TAF: LIPB 150435Z 1505/1524 VRB05KT 9999 FEW030 TEMPO 1510/1515 4000 TSRA

Weather observations and forecasts of more than 4000 airports (METAR and TAF reports).

The available stations are represented by yellow and red dots on the map.

Hover mouse over dot to see the name of the station.

Then click to see weather observations and forecasts.

To change the map : click on the green buttons with a black cross to zoom in, on the green button with a dash to zoom out, or on the green arrows for adjacent maps.


METAR-TAF: